createdAt,value
2023-01-13T00:00:36.458Z,100233.31
2023-01-13T00:03:03.494Z,100220.09
2023-01-13T00:05:30.437Z,100225.34
2023-01-13T00:07:57.230Z,100209.38
2023-01-13T00:10:25.494Z,100209.59
2023-01-13T00:12:53.537Z,100215.47
2023-01-13T00:15:20.446Z,100217.13
2023-01-13T00:17:48.776Z,100214.72
2023-01-13T00:20:16.356Z,100209.97
2023-01-13T00:22:43.221Z,100223.75
2023-01-13T00:25:10.312Z,100228.38
2023-01-13T00:27:39.017Z,100226.09
2023-01-13T00:30:07.557Z,100221.50
2023-01-13T00:32:34.628Z,100217.97
2023-01-13T00:35:01.558Z,100207.25
2023-01-13T00:37:28.494Z,100203.03
2023-01-13T00:39:55.370Z,100201.53
2023-01-13T00:42:42.487Z,100207.28
2023-01-13T00:45:11.311Z,100197.69
2023-01-13T00:47:38.157Z,100197.72
2023-01-13T00:50:05.657Z,100185.28
2023-01-13T00:52:32.650Z,100188.84
2023-01-13T00:55:00.869Z,100185.44
2023-01-13T00:57:28.005Z,100171.63
2023-01-13T00:59:54.926Z,100169.34
2023-01-13T01:02:23.304Z,100160.19
2023-01-13T01:04:50.279Z,100154.75
2023-01-13T01:07:17.409Z,100147.50
2023-01-13T01:09:44.510Z,100137.41
2023-01-13T01:12:11.496Z,100119.91
2023-01-13T01:14:38.373Z,100129.88
2023-01-13T01:17:05.246Z,100120.91
2023-01-13T01:19:37.381Z,100120.91
2023-01-13T01:22:04.516Z,100126.09
2023-01-13T01:24:31.384Z,100131.16
2023-01-13T01:26:58.218Z,100147.78
2023-01-13T01:29:25.088Z,100152.78
2023-01-13T01:31:51.919Z,100163.72
2023-01-13T01:34:18.903Z,100153.88
2023-01-13T01:36:47.170Z,100153.88
2023-01-13T01:39:13.993Z,100146.97
2023-01-13T01:42:00.999Z,100164.94
2023-01-13T01:44:52.526Z,100194.44
2023-01-13T01:47:20.475Z,100203.06
2023-01-13T01:49:48.841Z,100228.13
2023-01-13T01:52:23.859Z,100236.19
2023-01-13T01:54:54.827Z,100225.28
2023-01-13T01:57:27.763Z,100244.00
2023-01-13T01:59:54.942Z,100253.25
2023-01-13T02:02:22.639Z,100259.94
2023-01-13T02:04:53.783Z,100232.53
2023-01-13T02:07:26.350Z,100216.72
2023-01-13T02:22:25.289Z,100202.78
2023-01-13T02:25:12.408Z,100190.03
2023-01-13T02:28:19.649Z,100196.06
2023-01-13T02:31:12.014Z,100206.72
2023-01-13T02:33:56.931Z,100196.81
2023-01-13T02:36:30.535Z,100192.69
2023-01-13T02:39:04.231Z,100181.91
2023-01-13T02:42:31.605Z,100193.72
2023-01-13T02:45:04.868Z,100186.06
2023-01-13T02:47:36.712Z,100183.16
2023-01-13T02:50:07.693Z,100188.88
2023-01-13T02:52:38.428Z,100185.75
2023-01-13T02:55:10.715Z,100197.56
2023-01-13T02:57:39.754Z,100199.84
2023-01-13T03:00:51.822Z,100199.91
2023-01-13T03:03:20.238Z,100194.75
2023-01-13T03:05:49.838Z,100194.78
2023-01-13T03:08:27.199Z,100192.78
2023-01-13T03:11:05.792Z,100177.03
2023-01-13T03:14:09.052Z,100179.75
2023-01-13T03:16:48.070Z,100176.19
2023-01-13T03:19:25.334Z,100178.09
2023-01-13T03:21:57.335Z,100166.13
2023-01-13T03:24:30.531Z,100170.03
2023-01-13T03:27:04.529Z,100170.06
2023-01-13T03:30:27.112Z,100175.22
2023-01-13T03:32:59.689Z,100169.78
2023-01-13T03:35:31.191Z,100166.81
2023-01-13T03:38:02.833Z,100168.94
2023-01-13T03:40:33.467Z,100156.50
2023-01-13T03:43:24.174Z,100158.94
2023-01-13T03:45:57.457Z,100151.38
2023-01-13T03:48:28.132Z,100152.66
2023-01-13T03:51:03.194Z,100151.38
2023-01-13T03:53:33.361Z,100150.91
2023-01-13T03:56:07.621Z,100151.19
2023-01-13T03:58:39.105Z,100156.81
2023-01-13T04:01:13.000Z,100152.09
2023-01-13T04:03:42.377Z,100143.53
2023-01-13T04:06:17.080Z,100142.13
2023-01-13T04:08:50.136Z,100142.06
2023-01-13T04:11:22.564Z,100151.88
2023-01-13T04:13:50.329Z,100152.88
2023-01-13T04:16:17.596Z,100162.28
2023-01-13T04:18:44.498Z,100176.38
2023-01-13T04:21:12.766Z,100173.41
2023-01-13T04:23:52.026Z,100187.78
2023-01-13T04:26:19.837Z,100179.84
2023-01-13T04:28:46.839Z,100203.06
2023-01-13T04:31:13.921Z,100197.28
2023-01-13T04:36:48.427Z,100204.84
2023-01-13T04:39:46.748Z,100206.84
2023-01-13T04:42:19.388Z,100214.84
2023-01-13T04:45:05.960Z,100203.13
2023-01-13T04:47:51.114Z,100204.59
2023-01-13T04:50:21.035Z,100209.75
2023-01-13T04:52:57.376Z,100208.44
2023-01-13T04:56:03.451Z,100197.16
2023-01-13T04:58:50.810Z,100189.94
2023-01-13T05:01:24.102Z,100206.16
2023-01-13T05:04:07.475Z,100201.69
2023-01-13T05:06:58.872Z,100205.78
2023-01-13T05:09:43.685Z,100205.00
2023-01-13T05:12:29.647Z,100216.56
2023-01-13T05:15:43.890Z,100211.25
2023-01-13T05:18:20.277Z,100215.63
2023-01-13T05:21:33.863Z,100213.28
2023-01-13T05:24:19.330Z,100209.75
2023-01-13T05:26:52.412Z,100202.84
2023-01-13T05:29:30.808Z,100210.44
2023-01-13T05:32:02.655Z,100201.31
2023-01-13T05:34:30.108Z,100208.19
2023-01-13T05:36:59.286Z,100208.69
2023-01-13T05:39:51.622Z,100196.88
2023-01-13T05:42:42.796Z,100208.28
2023-01-13T05:45:11.058Z,100215.88
2023-01-13T05:47:42.436Z,100210.31
2023-01-13T05:50:29.399Z,100213.72
2023-01-13T05:52:59.379Z,100217.78
2023-01-13T05:55:26.260Z,100232.59
2023-01-13T05:57:54.544Z,100233.69
2023-01-13T06:00:21.762Z,100235.97
2023-01-13T06:02:49.282Z,100248.88
2023-01-13T06:05:16.296Z,100256.41
2023-01-13T06:07:43.192Z,100250.13
2023-01-13T06:10:11.174Z,100243.88
2023-01-13T06:12:38.198Z,100248.94
2023-01-13T06:15:07.576Z,100250.03
2023-01-13T06:17:34.526Z,100258.31
2023-01-13T06:20:01.599Z,100256.81
2023-01-13T06:22:35.659Z,100251.72
2023-01-13T06:25:03.989Z,100241.47
2023-01-13T06:27:31.153Z,100247.44
2023-01-13T06:29:58.368Z,100239.34
2023-01-13T06:32:32.079Z,100252.78
2023-01-13T06:35:05.460Z,100250.66
2023-01-13T06:37:33.497Z,100245.34
2023-01-13T06:40:02.853Z,100240.81
2023-01-13T06:42:59.040Z,100243.63
2023-01-13T06:45:30.038Z,100246.41
2023-01-13T06:48:00.010Z,100245.81
2023-01-13T06:50:28.366Z,100243.03
2023-01-13T06:52:55.634Z,100245.13
2023-01-13T06:55:22.665Z,100247.72
2023-01-13T06:57:51.311Z,100249.13
2023-01-13T07:00:19.795Z,100250.69
2023-01-13T07:02:47.185Z,100247.00
2023-01-13T07:05:16.050Z,100263.78
2023-01-13T07:07:43.153Z,100255.44
2023-01-13T07:10:13.211Z,100252.78
2023-01-13T07:13:00.056Z,100255.16
2023-01-13T07:15:27.260Z,100268.19
2023-01-13T07:17:54.368Z,100275.91
2023-01-13T07:20:23.027Z,100275.22
2023-01-13T07:22:54.572Z,100285.22
2023-01-13T07:25:21.761Z,100285.13
2023-01-13T07:27:48.647Z,100296.75
2023-01-13T07:30:15.694Z,100300.06
2023-01-13T07:32:42.555Z,100310.22
2023-01-13T07:35:09.753Z,100321.19
2023-01-13T07:37:39.477Z,100319.19
2023-01-13T07:40:08.063Z,100320.53
2023-01-13T07:42:57.330Z,100327.06
2023-01-13T07:45:24.301Z,100323.78
2023-01-13T07:47:53.193Z,100333.53
2023-01-13T07:50:21.729Z,100338.69
2023-01-13T07:52:50.462Z,100350.81
2023-01-13T07:55:17.481Z,100339.81
2023-01-13T07:57:44.700Z,100350.19
2023-01-13T08:00:13.138Z,100343.75
2023-01-13T08:02:40.157Z,100358.75
2023-01-13T08:05:08.021Z,100356.28
2023-01-13T08:07:35.612Z,100355.84
2023-01-13T08:10:06.999Z,100357.81
2023-01-13T08:12:57.107Z,100355.53
2023-01-13T08:15:24.304Z,100374.56
2023-01-13T08:17:52.635Z,100369.03
2023-01-13T08:20:21.519Z,100369.47
2023-01-13T08:22:49.439Z,100370.47
2023-01-13T08:25:18.782Z,100380.94
2023-01-13T08:27:49.398Z,100378.66
2023-01-13T08:30:18.440Z,100374.66
2023-01-13T08:32:47.997Z,100375.25
2023-01-13T08:35:17.502Z,100390.59
2023-01-13T08:37:44.652Z,100391.59
2023-01-13T08:40:13.468Z,100413.59
2023-01-13T08:42:48.507Z,100416.22
2023-01-13T08:45:18.404Z,100418.81
2023-01-13T08:47:46.002Z,100411.13
2023-01-13T08:50:14.589Z,100431.16
2023-01-13T08:52:45.631Z,100424.16
2023-01-13T08:55:18.346Z,100426.75
2023-01-13T08:57:54.471Z,100424.75
2023-01-13T09:00:25.323Z,100404.59
2023-01-13T09:02:54.600Z,100423.91
2023-01-13T09:05:26.629Z,100405.41
2023-01-13T09:07:55.520Z,100422.94
2023-01-13T09:10:24.049Z,100430.25
2023-01-13T09:13:14.031Z,100430.69
2023-01-13T09:15:43.965Z,100438.25
2023-01-13T09:18:11.535Z,100440.13
2023-01-13T09:20:40.670Z,100454.56
2023-01-13T09:23:10.948Z,100442.66
2023-01-13T09:25:39.879Z,100449.19
2023-01-13T09:28:09.763Z,100456.97
2023-01-13T09:30:38.577Z,100453.34
2023-01-13T09:33:24.745Z,100466.63
2023-01-13T09:35:53.432Z,100462.53
2023-01-13T09:38:23.436Z,100479.03
2023-01-13T09:40:51.760Z,100464.53
2023-01-13T09:43:44.922Z,100480.66
2023-01-13T09:46:39.035Z,100483.31
2023-01-13T09:49:13.959Z,100480.28
2023-01-13T09:51:49.866Z,100481.22
2023-01-13T09:54:25.280Z,100488.72
2023-01-13T09:56:53.440Z,100486.00
2023-01-13T09:59:22.552Z,100493.13
2023-01-13T10:01:57.513Z,100500.59
2023-01-13T10:04:24.793Z,100506.69
2023-01-13T10:06:56.765Z,100513.78
2023-01-13T10:09:35.004Z,100511.56
2023-01-13T10:12:24.482Z,100502.63
2023-01-13T10:14:56.128Z,100512.91
2023-01-13T10:17:31.395Z,100537.78
2023-01-13T10:20:11.595Z,100535.94
2023-01-13T10:23:01.990Z,100539.28
2023-01-13T10:25:46.807Z,100548.81
2023-01-13T10:28:18.523Z,100545.75
2023-01-13T10:30:52.425Z,100552.44
2023-01-13T11:03:54.600Z,100600.28
2023-01-13T11:06:25.169Z,100607.31
2023-01-13T11:08:55.372Z,100599.63
2023-01-13T11:11:39.472Z,100602.34
2023-01-13T11:14:26.830Z,100590.50
2023-01-13T11:16:57.840Z,100605.56
2023-01-13T11:19:29.446Z,100592.41
2023-01-13T11:22:01.710Z,100599.13
2023-01-13T11:24:36.913Z,100595.75
2023-01-13T11:27:12.679Z,100602.03
2023-01-13T11:29:51.389Z,100613.00
2023-01-13T11:32:21.556Z,100606.97
2023-01-13T11:34:54.548Z,100608.69
2023-01-13T11:37:25.097Z,100618.59
2023-01-13T11:40:01.763Z,100619.03
2023-01-13T11:42:36.560Z,100617.22
2023-01-13T11:45:13.186Z,100621.97
2023-01-13T11:47:40.091Z,100635.78
2023-01-13T11:50:18.930Z,100619.06
2023-01-13T11:53:21.216Z,100626.75
2023-01-13T11:55:57.526Z,100624.00
2023-01-13T11:58:49.585Z,100638.34
2023-01-13T12:01:36.583Z,100627.56
2023-01-13T12:04:22.066Z,100637.78
2023-01-13T12:06:57.327Z,100647.72
2023-01-13T12:09:39.708Z,100660.75
2023-01-13T12:12:20.351Z,100653.81
2023-01-13T12:15:13.960Z,100657.72
2023-01-13T12:17:51.884Z,100662.00
2023-01-13T12:20:29.237Z,100656.13
2023-01-13T12:23:02.784Z,100655.69
2023-01-13T12:25:37.535Z,100648.78
2023-01-13T12:28:11.579Z,100638.94
2023-01-13T12:30:42.723Z,100656.31
2023-01-13T12:35:55.247Z,100644.06
2023-01-13T12:38:34.429Z,100650.78
2023-01-13T12:41:15.053Z,100667.13
2023-01-13T12:44:05.286Z,100666.13
2023-01-13T12:46:53.469Z,100666.59
2023-01-13T12:49:31.365Z,100676.84
2023-01-13T12:52:20.031Z,100655.75
2023-01-13T12:55:19.080Z,100676.19
2023-01-13T12:58:02.917Z,100685.00
2023-01-13T13:00:38.327Z,100684.19
2023-01-13T13:03:32.423Z,100684.84
2023-01-13T13:06:18.561Z,100688.13
2023-01-13T13:08:58.435Z,100709.78
2023-01-13T13:11:58.233Z,100708.75
2023-01-13T13:15:04.655Z,100695.81
2023-01-13T13:17:44.541Z,100706.66
2023-01-13T13:20:50.846Z,100704.72
2023-01-13T13:24:04.206Z,100709.50
2023-01-13T13:26:54.213Z,100709.34
2023-01-13T13:29:47.901Z,100719.13
2023-01-13T13:33:09.562Z,100712.69
2023-01-13T13:36:12.928Z,100723.41
2023-01-13T13:39:39.982Z,100729.84
2023-01-13T13:42:43.621Z,100730.41
2023-01-13T13:45:40.015Z,100745.81
2023-01-13T13:48:23.595Z,100754.94
2023-01-13T13:50:57.715Z,100737.03
2023-01-13T13:53:32.048Z,100740.06
2023-01-13T13:56:06.704Z,100760.75
2023-01-13T13:59:01.519Z,100748.06
2023-01-13T14:05:21.613Z,100757.22
2023-01-13T14:12:22.522Z,100769.13
2023-01-13T14:14:51.388Z,100763.84
2023-01-13T14:17:25.252Z,100781.16
2023-01-13T14:19:52.868Z,100782.66
2023-01-13T14:22:20.159Z,100780.50
2023-01-13T14:24:51.164Z,100782.41
2023-01-13T14:27:19.075Z,100803.03
2023-01-13T14:29:46.006Z,100795.25
2023-01-13T14:32:18.546Z,100811.06
2023-01-13T14:34:45.708Z,100809.00
2023-01-13T14:37:31.218Z,100819.03
2023-01-13T14:39:58.104Z,100819.56
2023-01-13T14:42:27.591Z,100819.47
2023-01-13T14:44:56.257Z,100835.47
2023-01-13T14:47:28.025Z,100841.38
2023-01-13T14:50:03.203Z,100853.41
2023-01-13T14:52:32.305Z,100842.19
2023-01-13T14:55:23.720Z,100855.97
2023-01-13T14:57:51.021Z,100862.25
2023-01-13T15:00:27.642Z,100869.72
2023-01-13T15:03:08.035Z,100870.19
2023-01-13T15:05:42.762Z,100879.19
2023-01-13T15:08:28.013Z,100884.34
2023-01-13T15:11:00.047Z,100887.72
2023-01-13T15:13:33.526Z,100893.09
2023-01-13T15:16:03.137Z,100901.03
2023-01-13T15:18:31.812Z,100896.69
2023-01-13T15:20:58.706Z,100900.44
2023-01-13T15:23:25.621Z,100919.03
2023-01-13T15:25:52.518Z,100917.81
2023-01-13T15:28:21.907Z,100913.28
2023-01-13T15:30:50.176Z,100920.63
2023-01-13T15:33:17.919Z,100926.47
2023-01-13T15:35:47.685Z,100937.72
2023-01-13T15:38:17.072Z,100947.00
2023-01-13T15:40:44.015Z,100932.63
2023-01-13T15:43:32.778Z,100946.41
2023-01-13T15:46:18.477Z,100944.94
2023-01-13T15:48:46.030Z,100945.66
2023-01-13T15:51:21.207Z,100949.66
2023-01-13T15:53:48.268Z,100960.75
2023-01-13T15:56:21.785Z,100955.72
2023-01-13T15:58:48.627Z,100972.06
2023-01-13T16:01:15.628Z,100971.13
2023-01-13T16:03:42.646Z,100972.88
2023-01-13T16:06:16.304Z,100985.13
2023-01-13T16:08:44.700Z,100992.69
2023-01-13T16:11:12.100Z,100994.28
2023-01-13T16:13:38.945Z,101006.06
2023-01-13T16:16:15.988Z,101004.88
2023-01-13T16:18:42.872Z,101008.59
2023-01-13T16:21:12.228Z,101015.72
2023-01-13T16:23:39.097Z,101012.31
2023-01-13T16:26:07.662Z,101019.41
2023-01-13T16:28:35.934Z,101030.31
2023-01-13T16:31:19.933Z,101024.31
2023-01-13T16:33:46.875Z,101017.31
2023-01-13T16:36:15.912Z,101030.16
2023-01-13T16:38:43.447Z,101032.63
2023-01-13T16:41:11.853Z,101030.50
2023-01-13T16:43:39.652Z,101023.84
2023-01-13T16:46:25.414Z,101032.69
2023-01-13T16:48:53.623Z,101043.03
2023-01-13T16:51:21.461Z,101044.31
2023-01-13T16:53:51.038Z,101050.41
2023-01-13T16:56:27.190Z,101067.34
2023-01-13T16:58:55.434Z,101059.00
2023-01-13T17:01:25.006Z,101068.94
2023-01-13T17:03:52.821Z,101056.13
2023-01-13T17:06:24.346Z,101066.72
2023-01-13T17:08:53.218Z,101076.22
2023-01-13T17:11:20.771Z,101083.03
2023-01-13T17:13:49.079Z,101089.00
2023-01-13T17:16:21.847Z,101090.34
2023-01-13T17:18:49.006Z,101081.97
2023-01-13T17:21:16.300Z,101089.72
2023-01-13T17:23:43.522Z,101091.03
2023-01-13T17:29:27.781Z,101096.16
2023-01-13T17:31:55.181Z,101100.28
2023-01-13T17:34:22.348Z,101095.38
2023-01-13T17:36:49.592Z,101108.38
2023-01-13T17:39:18.091Z,101102.22
2023-01-13T17:41:45.432Z,101105.69
2023-01-13T17:44:14.550Z,101114.13
2023-01-13T17:46:43.710Z,101112.53
2023-01-13T17:49:11.292Z,101122.09
2023-01-13T17:51:38.229Z,101126.72
2023-01-13T17:54:05.390Z,101122.88
2023-01-13T17:56:32.417Z,101122.19
2023-01-13T17:58:59.670Z,101132.56
2023-01-13T18:01:30.721Z,101125.59
2023-01-13T18:03:59.457Z,101127.06
2023-01-13T18:06:26.640Z,101123.41
2023-01-13T18:08:53.650Z,101131.72
2023-01-13T18:11:22.484Z,101143.97
2023-01-13T18:13:52.453Z,101143.66
2023-01-13T18:17:15.297Z,101149.81
2023-01-13T18:20:02.312Z,101144.94
2023-01-13T18:22:47.512Z,101161.09
2023-01-13T18:25:32.988Z,101156.59
2023-01-13T18:28:03.964Z,101163.97
2023-01-13T18:30:31.056Z,101168.97
2023-01-13T18:33:04.583Z,101174.69
2023-01-13T18:36:53.985Z,101172.28
2023-01-13T18:39:48.603Z,101174.13
2023-01-13T18:42:56.963Z,101184.63
2023-01-13T18:46:11.850Z,101183.94
2023-01-13T18:49:12.742Z,101180.50
2023-01-13T18:51:50.958Z,101178.59
2023-01-13T18:54:46.052Z,101181.81
2023-01-13T19:01:34.098Z,101193.41
2023-01-13T19:04:44.656Z,101192.84
2023-01-13T19:07:21.843Z,101197.69
2023-01-13T19:09:50.062Z,101199.78
2023-01-13T19:12:23.693Z,101208.72
2023-01-13T19:14:50.726Z,101206.75
2023-01-13T19:17:17.784Z,101209.53
2023-01-13T19:19:46.199Z,101213.09
2023-01-13T19:22:17.360Z,101207.16
2023-01-13T19:24:44.386Z,101208.81
2023-01-13T19:27:14.501Z,101211.50
2023-01-13T19:29:45.492Z,101227.06
2023-01-13T19:32:19.829Z,101234.88
2023-01-13T19:34:49.185Z,101243.88
2023-01-13T19:37:17.540Z,101232.13
2023-01-13T19:44:04.306Z,101231.88
2023-01-13T19:46:31.364Z,101228.91
2023-01-13T19:48:58.354Z,101238.13
2023-01-13T19:51:25.377Z,101243.28
2023-01-13T19:53:53.730Z,101239.75
2023-01-13T19:56:20.567Z,101236.75
2023-01-13T19:58:50.801Z,101256.41
2023-01-13T20:01:17.902Z,101257.09
2023-01-13T20:03:46.122Z,101263.91
2023-01-13T20:06:14.089Z,101267.72
2023-01-13T20:08:42.103Z,101274.88
2023-01-13T20:11:21.479Z,101264.94
2023-01-13T20:13:48.820Z,101277.59
2023-01-13T20:16:15.979Z,101274.41
2023-01-13T20:18:42.881Z,101283.91
2023-01-13T20:21:09.859Z,101281.09
2023-01-13T20:23:36.877Z,101290.31
2023-01-13T20:26:07.641Z,101290.44
2023-01-13T20:28:38.828Z,101290.06
2023-01-13T20:31:07.237Z,101294.16
2023-01-13T20:33:34.447Z,101295.13
2023-01-13T20:36:01.563Z,101287.16
2023-01-13T20:38:28.734Z,101297.81
2023-01-13T20:40:59.332Z,101302.47
2023-01-13T20:43:27.463Z,101294.06
2023-01-13T20:45:55.776Z,101299.69
2023-01-13T20:48:22.763Z,101299.56
2023-01-13T20:50:54.162Z,101306.59
2023-01-13T20:53:21.149Z,101309.97
2023-01-13T20:55:48.169Z,101306.94
2023-01-13T20:58:15.176Z,101316.53
2023-01-13T21:00:42.229Z,101303.78
2023-01-13T21:03:10.520Z,101299.63
2023-01-13T21:05:37.496Z,101300.50
2023-01-13T21:08:04.867Z,101300.59
2023-01-13T21:10:31.939Z,101309.34
2023-01-13T21:16:28.279Z,101305.47
2023-01-13T21:19:09.398Z,101311.41
2023-01-13T21:21:36.636Z,101314.34
2023-01-13T21:24:04.860Z,101309.66
2023-01-13T21:26:32.667Z,101317.25
2023-01-13T21:29:00.362Z,101319.31
2023-01-13T21:31:27.925Z,101322.16
2023-01-13T21:33:57.451Z,101333.38
2023-01-13T21:36:24.916Z,101325.78
2023-01-13T21:38:52.360Z,101324.00
2023-01-13T21:41:39.266Z,101326.09
2023-01-13T21:44:24.821Z,101322.13
2023-01-13T21:47:10.586Z,101320.13
2023-01-13T21:49:44.087Z,101331.84
2023-01-13T21:52:11.809Z,101327.84
2023-01-13T21:54:58.834Z,101326.06
2023-01-13T21:57:27.304Z,101321.75
2023-01-13T21:59:54.412Z,101315.78
2023-01-13T22:02:35.686Z,101306.22
2023-01-13T22:05:06.528Z,101316.97
2023-01-13T22:07:35.104Z,101317.28
2023-01-13T22:10:02.549Z,101318.41
2023-01-13T22:12:30.059Z,101312.19
2023-01-13T22:14:57.400Z,101325.34
2023-01-13T22:17:26.720Z,101308.72
2023-01-13T22:19:56.617Z,101315.22
2023-01-13T22:22:26.060Z,101309.00
2023-01-13T22:24:53.672Z,101310.00
2023-01-13T22:27:22.788Z,101310.13
2023-01-13T22:29:50.528Z,101305.06
2023-01-13T22:32:18.565Z,101306.00
2023-01-13T22:34:45.459Z,101314.56
2023-01-13T22:37:12.759Z,101310.78
2023-01-13T22:39:41.240Z,101316.38
2023-01-13T22:42:10.205Z,101314.13
2023-01-13T22:44:37.150Z,101312.97
2023-01-13T22:47:04.189Z,101309.41
2023-01-13T22:49:31.215Z,101311.25
2023-01-13T22:51:58.111Z,101295.94
2023-01-13T22:54:24.968Z,101300.78
2023-01-13T22:56:53.342Z,101290.59
2023-01-13T22:59:21.993Z,101282.00
2023-01-13T23:01:48.954Z,101289.72
2023-01-13T23:04:16.071Z,101302.31
2023-01-13T23:06:43.110Z,101305.16
2023-01-13T23:09:10.209Z,101313.16
2023-01-13T23:11:37.220Z,101309.97
2023-01-13T23:14:07.666Z,101310.34
2023-01-13T23:16:36.849Z,101314.13
2023-01-13T23:19:04.470Z,101309.09
2023-01-13T23:21:36.559Z,101313.59
2023-01-13T23:24:04.300Z,101300.06
2023-01-13T23:26:32.669Z,101291.22
2023-01-13T23:29:00.884Z,101294.16
2023-01-13T23:31:30.005Z,101283.38
2023-01-13T23:33:57.011Z,101284.50
2023-01-13T23:36:25.408Z,101276.97
2023-01-13T23:38:53.009Z,101286.34
2023-01-13T23:41:21.709Z,101280.44
2023-01-13T23:43:53.004Z,101286.91
2023-01-13T23:46:20.655Z,101290.97
2023-01-13T23:48:49.933Z,101294.50
2023-01-13T23:51:17.685Z,101290.44
2023-01-13T23:53:47.162Z,101285.50
2023-01-13T23:56:16.165Z,101293.22
2023-01-13T23:58:43.569Z,101293.00
